sensor_id;sensor_type;location;lat;lon;timestamp;P1;durP1;ratioP1;P2;durP2;ratioP2
32295;SDS011;18781;51.550;5.418;2023-10-31T00:00:01;12.77;;;9.32;;
32295;SDS011;18781;51.550;5.418;2023-10-31T00:02:28;14.85;;;9.98;;
32295;SDS011;18781;51.550;5.418;2023-10-31T00:04:54;13.35;;;9.20;;
32295;SDS011;18781;51.550;5.418;2023-10-31T00:07:19;12.07;;;7.85;;
32295;SDS011;18781;51.550;5.418;2023-10-31T00:09:45;12.25;;;8.70;;
32295;SDS011;18781;51.550;5.418;2023-10-31T00:12:10;14.48;;;7.53;;
32295;SDS011;18781;51.550;5.418;2023-10-31T00:14:36;9.20;;;6.45;;
32295;SDS011;18781;51.550;5.418;2023-10-31T00:17:03;9.38;;;5.68;;
32295;SDS011;18781;51.550;5.418;2023-10-31T00:19:29;15.15;;;6.00;;
32295;SDS011;18781;51.550;5.418;2023-10-31T00:21:54;11.23;;;5.97;;
32295;SDS011;18781;51.550;5.418;2023-10-31T00:24:20;9.80;;;5.10;;
32295;SDS011;18781;51.550;5.418;2023-10-31T00:26:46;9.55;;;5.32;;
32295;SDS011;18781;51.550;5.418;2023-10-31T00:29:11;10.10;;;4.80;;
32295;SDS011;18781;51.550;5.418;2023-10-31T00:31:37;9.73;;;4.70;;
32295;SDS011;18781;51.550;5.418;2023-10-31T00:34:06;9.25;;;4.40;;
32295;SDS011;18781;51.550;5.418;2023-10-31T00:36:32;9.55;;;4.10;;
32295;SDS011;18781;51.550;5.418;2023-10-31T00:38:58;8.93;;;3.72;;
32295;SDS011;18781;51.550;5.418;2023-10-31T00:41:23;11.75;;;4.30;;
32295;SDS011;18781;51.550;5.418;2023-10-31T00:43:49;10.63;;;3.42;;
32295;SDS011;18781;51.550;5.418;2023-10-31T00:46:15;7.15;;;3.70;;
32295;SDS011;18781;51.550;5.418;2023-10-31T00:48:40;6.63;;;3.30;;
32295;SDS011;18781;51.550;5.418;2023-10-31T00:51:06;9.05;;;3.28;;
32295;SDS011;18781;51.550;5.418;2023-10-31T00:53:31;6.65;;;2.85;;
32295;SDS011;18781;51.550;5.418;2023-10-31T00:55:58;6.60;;;2.78;;
32295;SDS011;18781;51.550;5.418;2023-10-31T00:58:24;6.88;;;2.85;;
32295;SDS011;18781;51.550;5.418;2023-10-31T01:00:49;7.88;;;2.95;;
32295;SDS011;18781;51.550;5.418;2023-10-31T01:03:15;7.22;;;2.78;;
32295;SDS011;18781;51.550;5.418;2023-10-31T01:05:41;7.07;;;2.97;;
32295;SDS011;18781;51.550;5.418;2023-10-31T01:08:06;12.40;;;2.90;;
32295;SDS011;18781;51.550;5.418;2023-10-31T01:10:32;9.07;;;3.20;;
32295;SDS011;18781;51.550;5.418;2023-10-31T01:12:57;9.25;;;3.25;;
32295;SDS011;18781;51.550;5.418;2023-10-31T01:15:23;14.13;;;3.70;;
32295;SDS011;18781;51.550;5.418;2023-10-31T01:17:48;10.23;;;4.70;;
32295;SDS011;18781;51.550;5.418;2023-10-31T01:20:14;13.55;;;5.95;;
32295;SDS011;18781;51.550;5.418;2023-10-31T01:22:40;15.13;;;7.95;;
32295;SDS011;18781;51.550;5.418;2023-10-31T01:25:05;19.90;;;8.88;;
32295;SDS011;18781;51.550;5.418;2023-10-31T01:27:31;22.13;;;9.32;;
32295;SDS011;18781;51.550;5.418;2023-10-31T01:29:57;20.02;;;10.90;;
32295;SDS011;18781;51.550;5.418;2023-10-31T01:32:22;20.63;;;12.05;;
32295;SDS011;18781;51.550;5.418;2023-10-31T01:34:48;21.65;;;13.15;;
32295;SDS011;18781;51.550;5.418;2023-10-31T01:37:14;26.33;;;15.05;;
32295;SDS011;18781;51.550;5.418;2023-10-31T01:39:40;25.63;;;15.43;;
32295;SDS011;18781;51.550;5.418;2023-10-31T01:42:06;25.77;;;16.50;;
32295;SDS011;18781;51.550;5.418;2023-10-31T01:44:32;29.63;;;16.98;;
32295;SDS011;18781;51.550;5.418;2023-10-31T01:46:57;31.73;;;18.83;;
32295;SDS011;18781;51.550;5.418;2023-10-31T01:49:23;34.55;;;21.10;;
32295;SDS011;18781;51.550;5.418;2023-10-31T01:51:49;34.47;;;20.45;;
32295;SDS011;18781;51.550;5.418;2023-10-31T01:54:15;33.50;;;22.35;;
32295;SDS011;18781;51.550;5.418;2023-10-31T01:56:42;36.03;;;23.33;;
32295;SDS011;18781;51.550;5.418;2023-10-31T01:59:08;39.00;;;25.00;;
32295;SDS011;18781;51.550;5.418;2023-10-31T02:01:40;42.60;;;25.50;;
32295;SDS011;18781;51.550;5.418;2023-10-31T02:04:06;41.53;;;26.00;;
32295;SDS011;18781;51.550;5.418;2023-10-31T02:06:32;39.85;;;26.15;;
32295;SDS011;18781;51.550;5.418;2023-10-31T02:08:57;41.83;;;27.52;;
32295;SDS011;18781;51.550;5.418;2023-10-31T02:11:23;48.03;;;27.95;;
32295;SDS011;18781;51.550;5.418;2023-10-31T02:13:48;41.75;;;26.52;;
32295;SDS011;18781;51.550;5.418;2023-10-31T02:16:14;47.50;;;27.55;;
32295;SDS011;18781;51.550;5.418;2023-10-31T02:18:40;40.50;;;26.80;;
32295;SDS011;18781;51.550;5.418;2023-10-31T02:21:06;46.33;;;28.70;;
32295;SDS011;18781;51.550;5.418;2023-10-31T02:23:31;51.97;;;28.45;;
32295;SDS011;18781;51.550;5.418;2023-10-31T02:25:57;48.13;;;29.98;;
32295;SDS011;18781;51.550;5.418;2023-10-31T02:28:22;50.22;;;29.15;;
32295;SDS011;18781;51.550;5.418;2023-10-31T02:30:52;54.58;;;32.88;;
32295;SDS011;18781;51.550;5.418;2023-10-31T02:33:19;49.17;;;31.60;;
32295;SDS011;18781;51.550;5.418;2023-10-31T02:35:45;59.25;;;32.95;;
32295;SDS011;18781;51.550;5.418;2023-10-31T02:38:10;54.72;;;31.90;;
32295;SDS011;18781;51.550;5.418;2023-10-31T02:40:36;52.63;;;32.95;;
32295;SDS011;18781;51.550;5.418;2023-10-31T02:43:02;55.97;;;33.45;;
32295;SDS011;18781;51.550;5.418;2023-10-31T02:45:27;50.50;;;33.15;;
32295;SDS011;18781;51.550;5.418;2023-10-31T02:47:53;57.47;;;36.13;;
32295;SDS011;18781;51.550;5.418;2023-10-31T02:50:18;62.60;;;35.08;;
32295;SDS011;18781;51.550;5.418;2023-10-31T02:52:44;59.80;;;34.80;;
32295;SDS011;18781;51.550;5.418;2023-10-31T02:55:10;59.83;;;36.03;;
32295;SDS011;18781;51.550;5.418;2023-10-31T02:57:35;60.05;;;35.05;;
32295;SDS011;18781;51.550;5.418;2023-10-31T03:00:01;52.42;;;33.65;;
32295;SDS011;18781;51.550;5.418;2023-10-31T03:02:27;53.55;;;34.25;;
32295;SDS011;18781;51.550;5.418;2023-10-31T03:04:53;56.20;;;34.15;;
32295;SDS011;18781;51.550;5.418;2023-10-31T03:07:18;56.85;;;35.42;;
32295;SDS011;18781;51.550;5.418;2023-10-31T03:09:44;58.28;;;36.08;;
32295;SDS011;18781;51.550;5.418;2023-10-31T03:12:09;56.58;;;36.28;;
32295;SDS011;18781;51.550;5.418;2023-10-31T03:14:36;56.38;;;35.95;;
32295;SDS011;18781;51.550;5.418;2023-10-31T03:17:02;55.90;;;36.45;;
32295;SDS011;18781;51.550;5.418;2023-10-31T03:19:27;56.85;;;36.47;;
32295;SDS011;18781;51.550;5.418;2023-10-31T03:21:53;52.55;;;36.55;;
32295;SDS011;18781;51.550;5.418;2023-10-31T03:24:19;59.00;;;37.95;;
32295;SDS011;18781;51.550;5.418;2023-10-31T03:26:44;56.92;;;37.58;;
32295;SDS011;18781;51.550;5.418;2023-10-31T03:29:10;54.55;;;38.05;;
32295;SDS011;18781;51.550;5.418;2023-10-31T03:31:35;57.83;;;38.10;;
32295;SDS011;18781;51.550;5.418;2023-10-31T03:34:01;60.15;;;38.30;;
32295;SDS011;18781;51.550;5.418;2023-10-31T03:36:27;61.20;;;39.92;;
32295;SDS011;18781;51.550;5.418;2023-10-31T03:38:52;63.60;;;40.10;;
32295;SDS011;18781;51.550;5.418;2023-10-31T03:41:18;64.03;;;42.08;;
32295;SDS011;18781;51.550;5.418;2023-10-31T03:43:43;62.45;;;41.28;;
32295;SDS011;18781;51.550;5.418;2023-10-31T03:46:09;64.55;;;42.08;;
32295;SDS011;18781;51.550;5.418;2023-10-31T03:48:36;68.18;;;42.75;;
32295;SDS011;18781;51.550;5.418;2023-10-31T03:51:01;62.13;;;41.10;;
32295;SDS011;18781;51.550;5.418;2023-10-31T03:53:27;66.10;;;40.55;;
32295;SDS011;18781;51.550;5.418;2023-10-31T03:55:53;65.88;;;43.08;;
32295;SDS011;18781;51.550;5.418;2023-10-31T03:58:18;63.80;;;41.00;;
32295;SDS011;18781;51.550;5.418;2023-10-31T04:00:44;65.28;;;40.95;;
32295;SDS011;18781;51.550;5.418;2023-10-31T04:03:09;63.20;;;42.17;;
32295;SDS011;18781;51.550;5.418;2023-10-31T04:05:35;64.78;;;43.30;;
32295;SDS011;18781;51.550;5.418;2023-10-31T04:08:01;66.15;;;42.97;;
32295;SDS011;18781;51.550;5.418;2023-10-31T04:10:27;65.40;;;42.67;;
32295;SDS011;18781;51.550;5.418;2023-10-31T04:12:52;69.63;;;42.65;;
32295;SDS011;18781;51.550;5.418;2023-10-31T04:15:18;62.92;;;41.55;;
32295;SDS011;18781;51.550;5.418;2023-10-31T04:17:43;62.25;;;42.47;;
32295;SDS011;18781;51.550;5.418;2023-10-31T04:20:09;65.90;;;41.63;;
32295;SDS011;18781;51.550;5.418;2023-10-31T04:22:35;68.63;;;42.38;;
32295;SDS011;18781;51.550;5.418;2023-10-31T04:25:01;60.08;;;40.22;;
32295;SDS011;18781;51.550;5.418;2023-10-31T04:27:27;66.57;;;40.38;;
32295;SDS011;18781;51.550;5.418;2023-10-31T04:29:52;59.30;;;39.17;;
32295;SDS011;18781;51.550;5.418;2023-10-31T04:32:18;57.70;;;38.45;;
32295;SDS011;18781;51.550;5.418;2023-10-31T04:34:44;58.35;;;38.53;;
32295;SDS011;18781;51.550;5.418;2023-10-31T04:37:09;58.60;;;38.08;;
32295;SDS011;18781;51.550;5.418;2023-10-31T04:39:35;56.70;;;37.55;;
32295;SDS011;18781;51.550;5.418;2023-10-31T04:42:00;54.00;;;36.58;;
32295;SDS011;18781;51.550;5.418;2023-10-31T04:44:26;51.83;;;34.00;;
32295;SDS011;18781;51.550;5.418;2023-10-31T04:46:52;58.13;;;37.50;;
32295;SDS011;18781;51.550;5.418;2023-10-31T04:49:17;54.00;;;35.20;;
32295;SDS011;18781;51.550;5.418;2023-10-31T04:51:43;46.90;;;32.63;;
32295;SDS011;18781;51.550;5.418;2023-10-31T04:54:08;47.78;;;33.10;;
32295;SDS011;18781;51.550;5.418;2023-10-31T04:56:34;45.40;;;31.77;;
32295;SDS011;18781;51.550;5.418;2023-10-31T04:59:00;52.65;;;32.05;;
32295;SDS011;18781;51.550;5.418;2023-10-31T05:01:26;50.08;;;32.58;;
32295;SDS011;18781;51.550;5.418;2023-10-31T05:03:52;47.45;;;32.08;;
32295;SDS011;18781;51.550;5.418;2023-10-31T05:06:21;45.70;;;30.08;;
32295;SDS011;18781;51.550;5.418;2023-10-31T05:11:13;34.63;;;24.33;;
32295;SDS011;18781;51.550;5.418;2023-10-31T05:13:39;36.72;;;26.15;;
32295;SDS011;18781;51.550;5.418;2023-10-31T05:16:04;40.65;;;26.98;;
32295;SDS011;18781;51.550;5.418;2023-10-31T05:18:30;37.30;;;26.38;;
32295;SDS011;18781;51.550;5.418;2023-10-31T05:20:56;38.97;;;27.52;;
32295;SDS011;18781;51.550;5.418;2023-10-31T05:23:22;40.15;;;28.17;;
32295;SDS011;18781;51.550;5.418;2023-10-31T05:25:47;40.15;;;27.90;;
32295;SDS011;18781;51.550;5.418;2023-10-31T05:28:13;39.45;;;27.35;;
32295;SDS011;18781;51.550;5.418;2023-10-31T05:30:38;38.60;;;27.23;;
32295;SDS011;18781;51.550;5.418;2023-10-31T05:33:04;36.97;;;26.10;;
32295;SDS011;18781;51.550;5.418;2023-10-31T05:35:30;37.55;;;27.58;;
32295;SDS011;18781;51.550;5.418;2023-10-31T05:37:55;37.60;;;26.92;;
32295;SDS011;18781;51.550;5.418;2023-10-31T05:40:21;35.85;;;27.05;;
32295;SDS011;18781;51.550;5.418;2023-10-31T05:42:49;34.53;;;26.63;;
32295;SDS011;18781;51.550;5.418;2023-10-31T05:45:15;35.78;;;26.40;;
32295;SDS011;18781;51.550;5.418;2023-10-31T05:47:41;33.50;;;26.17;;
32295;SDS011;18781;51.550;5.418;2023-10-31T05:50:07;38.50;;;26.88;;
32295;SDS011;18781;51.550;5.418;2023-10-31T05:52:33;34.80;;;26.20;;
32295;SDS011;18781;51.550;5.418;2023-10-31T05:54:59;37.72;;;27.10;;
32295;SDS011;18781;51.550;5.418;2023-10-31T05:57:24;34.45;;;26.30;;
32295;SDS011;18781;51.550;5.418;2023-10-31T05:59:50;30.95;;;24.98;;
32295;SDS011;18781;51.550;5.418;2023-10-31T06:02:15;34.25;;;25.08;;
32295;SDS011;18781;51.550;5.418;2023-10-31T06:04:41;32.50;;;24.92;;
32295;SDS011;18781;51.550;5.418;2023-10-31T06:07:07;37.72;;;25.55;;
32295;SDS011;18781;51.550;5.418;2023-10-31T06:09:32;33.67;;;24.20;;
32295;SDS011;18781;51.550;5.418;2023-10-31T06:11:59;34.15;;;24.40;;
32295;SDS011;18781;51.550;5.418;2023-10-31T06:14:25;33.70;;;23.67;;
32295;SDS011;18781;51.550;5.418;2023-10-31T06:16:50;31.08;;;23.77;;
32295;SDS011;18781;51.550;5.418;2023-10-31T06:19:16;30.80;;;22.95;;
32295;SDS011;18781;51.550;5.418;2023-10-31T06:21:42;29.52;;;21.35;;
32295;SDS011;18781;51.550;5.418;2023-10-31T06:24:08;28.23;;;21.75;;
32295;SDS011;18781;51.550;5.418;2023-10-31T06:26:33;28.23;;;21.90;;
32295;SDS011;18781;51.550;5.418;2023-10-31T06:28:59;30.50;;;21.33;;
32295;SDS011;18781;51.550;5.418;2023-10-31T06:31:25;29.42;;;20.25;;
32295;SDS011;18781;51.550;5.418;2023-10-31T06:33:50;26.98;;;21.70;;
32295;SDS011;18781;51.550;5.418;2023-10-31T06:36:16;30.52;;;22.23;;
32295;SDS011;18781;51.550;5.418;2023-10-31T06:38:41;27.55;;;21.23;;
32295;SDS011;18781;51.550;5.418;2023-10-31T06:41:07;30.73;;;23.15;;
32295;SDS011;18781;51.550;5.418;2023-10-31T06:43:32;28.95;;;23.20;;
32295;SDS011;18781;51.550;5.418;2023-10-31T06:45:59;34.65;;;24.25;;
32295;SDS011;18781;51.550;5.418;2023-10-31T06:48:27;29.10;;;23.15;;
32295;SDS011;18781;51.550;5.418;2023-10-31T06:50:52;32.05;;;24.70;;
32295;SDS011;18781;51.550;5.418;2023-10-31T06:53:18;31.10;;;23.95;;
32295;SDS011;18781;51.550;5.418;2023-10-31T06:55:43;29.38;;;24.58;;
32295;SDS011;18781;51.550;5.418;2023-10-31T06:58:09;31.30;;;25.08;;
32295;SDS011;18781;51.550;5.418;2023-10-31T07:00:34;29.17;;;25.23;;
32295;SDS011;18781;51.550;5.418;2023-10-31T07:03:00;39.78;;;27.17;;
32295;SDS011;18781;51.550;5.418;2023-10-31T07:05:31;32.20;;;25.98;;
32295;SDS011;18781;51.550;5.418;2023-10-31T07:07:57;31.88;;;25.70;;
32295;SDS011;18781;51.550;5.418;2023-10-31T07:10:22;34.00;;;25.63;;
32295;SDS011;18781;51.550;5.418;2023-10-31T07:12:48;33.83;;;25.40;;
32295;SDS011;18781;51.550;5.418;2023-10-31T07:15:13;31.13;;;24.25;;
32295;SDS011;18781;51.550;5.418;2023-10-31T07:17:39;37.05;;;23.85;;
32295;SDS011;18781;51.550;5.418;2023-10-31T07:20:05;29.58;;;23.95;;
32295;SDS011;18781;51.550;5.418;2023-10-31T07:22:31;27.23;;;23.08;;
32295;SDS011;18781;51.550;5.418;2023-10-31T07:24:58;28.63;;;22.05;;
32295;SDS011;18781;51.550;5.418;2023-10-31T07:27:24;27.20;;;21.55;;
32295;SDS011;18781;51.550;5.418;2023-10-31T07:29:50;29.67;;;20.90;;
32295;SDS011;18781;51.550;5.418;2023-10-31T07:32:15;24.10;;;20.40;;
32295;SDS011;18781;51.550;5.418;2023-10-31T07:34:41;25.40;;;20.65;;
32295;SDS011;18781;51.550;5.418;2023-10-31T07:37:07;22.13;;;18.63;;
32295;SDS011;18781;51.550;5.418;2023-10-31T07:39:33;21.83;;;18.35;;
32295;SDS011;18781;51.550;5.418;2023-10-31T07:41:58;25.08;;;18.98;;
32295;SDS011;18781;51.550;5.418;2023-10-31T07:44:24;23.10;;;18.27;;
32295;SDS011;18781;51.550;5.418;2023-10-31T07:46:49;21.77;;;17.15;;
32295;SDS011;18781;51.550;5.418;2023-10-31T07:49:15;26.05;;;16.90;;
32295;SDS011;18781;51.550;5.418;2023-10-31T07:51:40;20.60;;;17.00;;
32295;SDS011;18781;51.550;5.418;2023-10-31T07:54:07;23.40;;;17.38;;
32295;SDS011;18781;51.550;5.418;2023-10-31T07:56:34;23.38;;;17.38;;
32295;SDS011;18781;51.550;5.418;2023-10-31T07:59:01;23.77;;;17.38;;
32295;SDS011;18781;51.550;5.418;2023-10-31T08:01:26;23.95;;;18.38;;
32295;SDS011;18781;51.550;5.418;2023-10-31T08:03:53;23.55;;;17.33;;
32295;SDS011;18781;51.550;5.418;2023-10-31T08:06:19;26.15;;;18.45;;
32295;SDS011;18781;51.550;5.418;2023-10-31T08:08:44;22.85;;;18.52;;
32295;SDS011;18781;51.550;5.418;2023-10-31T08:11:10;25.52;;;18.38;;
32295;SDS011;18781;51.550;5.418;2023-10-31T08:13:39;23.02;;;19.20;;
32295;SDS011;18781;51.550;5.418;2023-10-31T08:16:05;26.00;;;20.00;;
32295;SDS011;18781;51.550;5.418;2023-10-31T08:18:32;27.90;;;21.85;;
32295;SDS011;18781;51.550;5.418;2023-10-31T08:20:58;29.58;;;20.77;;
32295;SDS011;18781;51.550;5.418;2023-10-31T08:23:24;25.95;;;21.55;;
32295;SDS011;18781;51.550;5.418;2023-10-31T08:25:50;32.45;;;24.25;;
32295;SDS011;18781;51.550;5.418;2023-10-31T08:28:16;35.13;;;25.80;;
32295;SDS011;18781;51.550;5.418;2023-10-31T08:30:41;36.55;;;26.65;;
32295;SDS011;18781;51.550;5.418;2023-10-31T08:33:07;39.05;;;25.42;;
32295;SDS011;18781;51.550;5.418;2023-10-31T08:35:33;37.25;;;26.58;;
32295;SDS011;18781;51.550;5.418;2023-10-31T08:37:58;35.85;;;25.00;;
32295;SDS011;18781;51.550;5.418;2023-10-31T08:40:24;38.70;;;26.17;;
32295;SDS011;18781;51.550;5.418;2023-10-31T08:42:50;35.15;;;25.83;;
32295;SDS011;18781;51.550;5.418;2023-10-31T08:45:15;31.20;;;25.20;;
32295;SDS011;18781;51.550;5.418;2023-10-31T08:47:41;33.08;;;24.80;;
32295;SDS011;18781;51.550;5.418;2023-10-31T08:50:07;31.73;;;24.52;;
32295;SDS011;18781;51.550;5.418;2023-10-31T08:55:01;37.50;;;25.25;;
32295;SDS011;18781;51.550;5.418;2023-10-31T08:57:28;45.17;;;27.13;;
32295;SDS011;18781;51.550;5.418;2023-10-31T08:59:54;37.67;;;27.40;;
32295;SDS011;18781;51.550;5.418;2023-10-31T09:02:19;44.80;;;29.10;;
32295;SDS011;18781;51.550;5.418;2023-10-31T09:04:45;42.50;;;27.55;;
32295;SDS011;18781;51.550;5.418;2023-10-31T09:07:10;41.90;;;29.02;;
32295;SDS011;18781;51.550;5.418;2023-10-31T09:09:36;39.67;;;26.92;;
32295;SDS011;18781;51.550;5.418;2023-10-31T09:12:02;37.60;;;26.10;;
32295;SDS011;18781;51.550;5.418;2023-10-31T09:14:28;41.00;;;26.55;;
32295;SDS011;18781;51.550;5.418;2023-10-31T09:16:54;41.53;;;26.83;;
32295;SDS011;18781;51.550;5.418;2023-10-31T09:19:19;41.97;;;26.00;;
32295;SDS011;18781;51.550;5.418;2023-10-31T09:21:45;47.15;;;26.92;;
32295;SDS011;18781;51.550;5.418;2023-10-31T09:24:11;37.42;;;26.85;;
32295;SDS011;18781;51.550;5.418;2023-10-31T09:26:36;40.20;;;25.65;;
32295;SDS011;18781;51.550;5.418;2023-10-31T09:29:06;39.17;;;26.70;;
32295;SDS011;18781;51.550;5.418;2023-10-31T09:31:31;34.15;;;25.70;;
32295;SDS011;18781;51.550;5.418;2023-10-31T09:33:57;38.88;;;25.65;;
32295;SDS011;18781;51.550;5.418;2023-10-31T09:36:22;43.97;;;26.23;;
32295;SDS011;18781;51.550;5.418;2023-10-31T09:38:48;38.20;;;26.73;;
32295;SDS011;18781;51.550;5.418;2023-10-31T09:41:13;39.33;;;27.77;;
32295;SDS011;18781;51.550;5.418;2023-10-31T09:43:39;39.70;;;28.02;;
32295;SDS011;18781;51.550;5.418;2023-10-31T09:46:06;39.20;;;27.38;;
32295;SDS011;18781;51.550;5.418;2023-10-31T09:48:32;41.90;;;26.92;;
32295;SDS011;18781;51.550;5.418;2023-10-31T09:50:58;40.58;;;27.00;;
32295;SDS011;18781;51.550;5.418;2023-10-31T09:53:25;42.92;;;25.83;;
32295;SDS011;18781;51.550;5.418;2023-10-31T09:55:52;41.67;;;26.75;;
32295;SDS011;18781;51.550;5.418;2023-10-31T09:58:18;40.28;;;26.00;;
32295;SDS011;18781;51.550;5.418;2023-10-31T10:00:44;38.53;;;25.90;;
32295;SDS011;18781;51.550;5.418;2023-10-31T10:03:10;39.35;;;26.55;;
32295;SDS011;18781;51.550;5.418;2023-10-31T10:05:35;37.20;;;26.58;;
32295;SDS011;18781;51.550;5.418;2023-10-31T10:08:03;39.72;;;26.58;;
32295;SDS011;18781;51.550;5.418;2023-10-31T10:10:29;37.35;;;25.95;;
32295;SDS011;18781;51.550;5.418;2023-10-31T10:12:55;38.10;;;25.25;;
32295;SDS011;18781;51.550;5.418;2023-10-31T10:15:21;42.47;;;25.45;;
32295;SDS011;18781;51.550;5.418;2023-10-31T10:17:50;33.25;;;24.45;;
32295;SDS011;18781;51.550;5.418;2023-10-31T10:20:16;36.20;;;25.17;;
32295;SDS011;18781;51.550;5.418;2023-10-31T10:22:43;34.40;;;23.30;;
32295;SDS011;18781;51.550;5.418;2023-10-31T10:25:13;34.95;;;24.13;;
32295;SDS011;18781;51.550;5.418;2023-10-31T10:27:43;34.55;;;23.88;;
32295;SDS011;18781;51.550;5.418;2023-10-31T10:30:10;38.28;;;24.55;;
32295;SDS011;18781;51.550;5.418;2023-10-31T10:32:37;33.67;;;24.35;;
32295;SDS011;18781;51.550;5.418;2023-10-31T10:35:03;33.42;;;24.17;;
32295;SDS011;18781;51.550;5.418;2023-10-31T10:37:29;37.58;;;24.50;;
32295;SDS011;18781;51.550;5.418;2023-10-31T10:39:55;37.50;;;23.10;;
32295;SDS011;18781;51.550;5.418;2023-10-31T10:42:39;34.03;;;22.77;;
32295;SDS011;18781;51.550;5.418;2023-10-31T10:45:11;31.85;;;22.17;;
32295;SDS011;18781;51.550;5.418;2023-10-31T10:47:39;36.53;;;23.23;;
32295;SDS011;18781;51.550;5.418;2023-10-31T10:50:05;34.78;;;21.38;;
32295;SDS011;18781;51.550;5.418;2023-10-31T10:52:38;33.03;;;21.13;;
32295;SDS011;18781;51.550;5.418;2023-10-31T10:55:13;29.27;;;21.13;;
32295;SDS011;18781;51.550;5.418;2023-10-31T11:00:21;38.03;;;20.63;;
32295;SDS011;18781;51.550;5.418;2023-10-31T11:02:50;31.50;;;21.30;;
32295;SDS011;18781;51.550;5.418;2023-10-31T11:05:18;25.15;;;19.75;;
32295;SDS011;18781;51.550;5.418;2023-10-31T11:07:44;26.83;;;18.80;;
32295;SDS011;18781;51.550;5.418;2023-10-31T11:10:11;25.52;;;19.52;;
32295;SDS011;18781;51.550;5.418;2023-10-31T11:12:37;26.67;;;17.77;;
32295;SDS011;18781;51.550;5.418;2023-10-31T11:15:06;31.13;;;17.20;;
32295;SDS011;18781;51.550;5.418;2023-10-31T11:17:35;28.05;;;18.80;;
32295;SDS011;18781;51.550;5.418;2023-10-31T11:20:04;28.02;;;17.67;;
32295;SDS011;18781;51.550;5.418;2023-10-31T11:22:39;24.03;;;17.13;;
32295;SDS011;18781;51.550;5.418;2023-10-31T11:25:11;27.45;;;18.50;;
32295;SDS011;18781;51.550;5.418;2023-10-31T11:27:51;29.17;;;18.30;;
32295;SDS011;18781;51.550;5.418;2023-10-31T11:30:36;30.85;;;17.13;;
32295;SDS011;18781;51.550;5.418;2023-10-31T11:33:01;26.75;;;18.00;;
32295;SDS011;18781;51.550;5.418;2023-10-31T11:35:32;26.23;;;18.60;;
32295;SDS011;18781;51.550;5.418;2023-10-31T11:40:28;27.67;;;18.05;;
32295;SDS011;18781;51.550;5.418;2023-10-31T11:42:58;25.33;;;17.55;;
32295;SDS011;18781;51.550;5.418;2023-10-31T11:45:32;22.23;;;16.75;;
32295;SDS011;18781;51.550;5.418;2023-10-31T11:48:02;27.10;;;15.82;;
32295;SDS011;18781;51.550;5.418;2023-10-31T11:50:32;22.30;;;16.95;;
32295;SDS011;18781;51.550;5.418;2023-10-31T11:52:59;27.48;;;17.60;;
32295;SDS011;18781;51.550;5.418;2023-10-31T11:55:41;28.92;;;17.73;;
32295;SDS011;18781;51.550;5.418;2023-10-31T11:58:24;26.10;;;17.33;;
32295;SDS011;18781;51.550;5.418;2023-10-31T12:01:02;28.55;;;18.52;;
32295;SDS011;18781;51.550;5.418;2023-10-31T12:03:39;33.28;;;20.20;;
32295;SDS011;18781;51.550;5.418;2023-10-31T12:06:07;24.95;;;16.92;;
32295;SDS011;18781;51.550;5.418;2023-10-31T12:08:37;28.23;;;17.20;;
32295;SDS011;18781;51.550;5.418;2023-10-31T12:11:05;30.38;;;16.60;;
32295;SDS011;18781;51.550;5.418;2023-10-31T12:13:40;22.02;;;15.07;;
32295;SDS011;18781;51.550;5.418;2023-10-31T12:16:16;23.63;;;14.35;;
32295;SDS011;18781;51.550;5.418;2023-10-31T12:18:43;23.52;;;12.63;;
32295;SDS011;18781;51.550;5.418;2023-10-31T12:21:08;20.80;;;11.93;;
32295;SDS011;18781;51.550;5.418;2023-10-31T12:23:35;14.60;;;10.63;;
32295;SDS011;18781;51.550;5.418;2023-10-31T12:26:01;17.40;;;10.95;;
32295;SDS011;18781;51.550;5.418;2023-10-31T12:28:27;18.80;;;10.50;;
32295;SDS011;18781;51.550;5.418;2023-10-31T12:30:53;17.35;;;9.07;;
32295;SDS011;18781;51.550;5.418;2023-10-31T12:33:21;15.43;;;8.50;;
32295;SDS011;18781;51.550;5.418;2023-10-31T12:35:49;13.55;;;7.20;;
32295;SDS011;18781;51.550;5.418;2023-10-31T12:38:17;8.75;;;6.85;;
32295;SDS011;18781;51.550;5.418;2023-10-31T12:40:43;10.98;;;7.20;;
32295;SDS011;18781;51.550;5.418;2023-10-31T12:43:10;13.95;;;6.30;;
32295;SDS011;18781;51.550;5.418;2023-10-31T12:45:35;10.70;;;6.93;;
32295;SDS011;18781;51.550;5.418;2023-10-31T12:48:08;12.98;;;6.80;;
32295;SDS011;18781;51.550;5.418;2023-10-31T12:50:36;12.45;;;6.78;;
32295;SDS011;18781;51.550;5.418;2023-10-31T12:53:02;16.38;;;7.50;;
32295;SDS011;18781;51.550;5.418;2023-10-31T12:55:29;13.93;;;7.03;;
32295;SDS011;18781;51.550;5.418;2023-10-31T12:57:55;15.38;;;7.18;;
32295;SDS011;18781;51.550;5.418;2023-10-31T13:00:23;14.82;;;6.90;;
32295;SDS011;18781;51.550;5.418;2023-10-31T13:03:14;12.23;;;6.82;;
32295;SDS011;18781;51.550;5.418;2023-10-31T13:05:40;10.32;;;5.63;;
32295;SDS011;18781;51.550;5.418;2023-10-31T13:08:10;10.73;;;7.00;;
32295;SDS011;18781;51.550;5.418;2023-10-31T13:10:39;12.25;;;5.85;;
32295;SDS011;18781;51.550;5.418;2023-10-31T13:13:05;12.13;;;5.63;;
32295;SDS011;18781;51.550;5.418;2023-10-31T13:15:30;15.40;;;6.28;;
32295;SDS011;18781;51.550;5.418;2023-10-31T13:17:56;10.13;;;5.38;;
32295;SDS011;18781;51.550;5.418;2023-10-31T13:20:22;11.00;;;5.53;;
32295;SDS011;18781;51.550;5.418;2023-10-31T13:22:48;12.02;;;4.90;;
32295;SDS011;18781;51.550;5.418;2023-10-31T13:25:14;12.52;;;4.88;;
32295;SDS011;18781;51.550;5.418;2023-10-31T13:27:41;12.10;;;4.60;;
32295;SDS011;18781;51.550;5.418;2023-10-31T13:30:08;11.93;;;5.28;;
32295;SDS011;18781;51.550;5.418;2023-10-31T13:32:39;7.97;;;5.10;;
32295;SDS011;18781;51.550;5.418;2023-10-31T13:35:07;8.57;;;4.50;;
32295;SDS011;18781;51.550;5.418;2023-10-31T13:37:34;7.80;;;4.03;;
32295;SDS011;18781;51.550;5.418;2023-10-31T13:40:00;11.70;;;4.40;;
32295;SDS011;18781;51.550;5.418;2023-10-31T13:42:26;12.35;;;4.07;;
32295;SDS011;18781;51.550;5.418;2023-10-31T13:44:53;8.35;;;3.60;;
32295;SDS011;18781;51.550;5.418;2023-10-31T13:47:19;7.40;;;3.60;;
32295;SDS011;18781;51.550;5.418;2023-10-31T13:49:44;8.90;;;3.58;;
32295;SDS011;18781;51.550;5.418;2023-10-31T13:52:10;8.88;;;3.75;;
32295;SDS011;18781;51.550;5.418;2023-10-31T13:54:35;7.03;;;3.25;;
32295;SDS011;18781;51.550;5.418;2023-10-31T13:57:01;9.38;;;3.47;;
32295;SDS011;18781;51.550;5.418;2023-10-31T13:59:26;4.25;;;2.88;;
32295;SDS011;18781;51.550;5.418;2023-10-31T14:01:52;8.15;;;3.20;;
32295;SDS011;18781;51.550;5.418;2023-10-31T14:04:18;6.88;;;3.10;;
32295;SDS011;18781;51.550;5.418;2023-10-31T14:06:44;9.63;;;2.88;;
32295;SDS011;18781;51.550;5.418;2023-10-31T14:09:11;8.85;;;3.00;;
32295;SDS011;18781;51.550;5.418;2023-10-31T14:11:37;12.55;;;2.67;;
32295;SDS011;18781;51.550;5.418;2023-10-31T14:14:04;8.25;;;2.95;;
32295;SDS011;18781;51.550;5.418;2023-10-31T14:16:38;10.60;;;2.83;;
32295;SDS011;18781;51.550;5.418;2023-10-31T14:19:05;10.35;;;3.20;;
32295;SDS011;18781;51.550;5.418;2023-10-31T14:21:32;11.60;;;3.50;;
32295;SDS011;18781;51.550;5.418;2023-10-31T14:26:28;8.02;;;3.40;;
32295;SDS011;18781;51.550;5.418;2023-10-31T14:28:54;13.30;;;3.35;;
32295;SDS011;18781;51.550;5.418;2023-10-31T14:31:19;7.78;;;3.25;;
32295;SDS011;18781;51.550;5.418;2023-10-31T14:33:48;8.55;;;3.70;;